createdAt,value
2018-10-12T00:01:35.734Z,46.90
2018-10-12T00:04:02.574Z,47.00
2018-10-12T00:06:29.399Z,46.90
2018-10-12T00:08:56.270Z,46.90
2018-10-12T00:11:23.114Z,46.90
2018-10-12T00:13:49.946Z,46.90
2018-10-12T00:16:16.791Z,46.90
2018-10-12T00:18:43.635Z,46.90
2018-10-12T00:21:10.463Z,46.90
2018-10-12T00:23:37.296Z,46.90
2018-10-12T00:26:04.134Z,46.90
2018-10-12T00:28:30.962Z,46.90
2018-10-12T00:30:57.791Z,47.50
2018-10-12T00:33:24.638Z,46.90
2018-10-12T00:35:51.451Z,46.90
2018-10-12T00:38:18.282Z,46.90
2018-10-12T00:40:45.229Z,46.90
2018-10-12T00:43:12.231Z,46.90
2018-10-12T00:45:39.057Z,46.90
2018-10-12T00:48:05.896Z,46.90
2018-10-12T00:50:32.803Z,46.90
2018-10-12T00:52:59.625Z,46.90
2018-10-12T00:55:26.459Z,46.90
2018-10-12T00:57:53.296Z,46.90
2018-10-12T01:00:20.188Z,46.90
2018-10-12T01:02:47.041Z,46.90
2018-10-12T01:05:14.087Z,46.90
2018-10-12T01:07:40.918Z,46.90
2018-10-12T01:10:07.777Z,46.80
2018-10-12T01:12:34.702Z,46.90
2018-10-12T01:15:01.518Z,46.90
2018-10-12T01:17:28.361Z,46.90
2018-10-12T01:19:55.333Z,46.80
2018-10-12T01:22:22.158Z,46.80
2018-10-12T01:24:49.099Z,46.80
2018-10-12T01:27:15.923Z,46.80
2018-10-12T01:29:42.915Z,46.70
2018-10-12T01:32:09.861Z,46.80
2018-10-12T01:34:36.648Z,46.80
2018-10-12T01:37:03.486Z,46.80
2018-10-12T01:39:30.502Z,46.80
2018-10-12T01:41:57.331Z,46.80
2018-10-12T01:44:24.159Z,46.80
2018-10-12T01:46:50.987Z,46.80
2018-10-12T01:49:17.858Z,46.80
2018-10-12T01:51:44.698Z,46.80
2018-10-12T01:54:11.537Z,46.80
2018-10-12T01:56:38.354Z,46.80
2018-10-12T01:59:05.236Z,46.80
2018-10-12T02:01:32.062Z,46.80
2018-10-12T02:03:58.884Z,46.80
2018-10-12T02:06:25.708Z,46.80
2018-10-12T02:08:52.598Z,46.80
2018-10-12T02:11:19.426Z,46.80
2018-10-12T02:13:46.235Z,46.80
2018-10-12T02:16:13.065Z,46.90
2018-10-12T02:18:39.880Z,46.80
2018-10-12T02:21:06.708Z,46.80
2018-10-12T02:23:33.542Z,46.80
2018-10-12T02:26:00.372Z,46.70
2018-10-12T02:28:27.205Z,46.80
2018-10-12T02:30:54.026Z,46.70
2018-10-12T02:33:20.868Z,46.70
2018-10-12T02:35:47.694Z,46.70
2018-10-12T02:38:14.518Z,46.70
2018-10-12T02:40:41.365Z,46.70
2018-10-12T02:43:08.203Z,46.70
2018-10-12T02:45:35.022Z,46.70
2018-10-12T02:48:01.858Z,46.70
2018-10-12T02:50:28.729Z,46.70
2018-10-12T02:52:55.575Z,46.70
2018-10-12T02:55:22.405Z,46.70
2018-10-12T02:57:49.233Z,46.70
2018-10-12T03:00:16.109Z,46.80
2018-10-12T03:02:42.935Z,46.70
2018-10-12T03:05:09.753Z,46.80
2018-10-12T03:07:36.572Z,46.80
2018-10-12T03:10:03.462Z,46.70
2018-10-12T03:12:30.298Z,46.70
2018-10-12T03:14:57.125Z,46.70
2018-10-12T03:17:23.989Z,46.70
2018-10-12T03:19:50.846Z,46.70
2018-10-12T03:22:17.669Z,46.70
2018-10-12T03:24:44.495Z,46.70
2018-10-12T03:27:11.332Z,46.60
2018-10-12T03:29:38.208Z,46.70
2018-10-12T03:32:05.065Z,46.70
2018-10-12T03:34:31.890Z,46.60
2018-10-12T03:36:58.707Z,46.60
2018-10-12T03:39:25.605Z,46.70
2018-10-12T03:41:53.474Z,46.70
2018-10-12T03:44:20.309Z,46.80
2018-10-12T03:46:47.150Z,46.60
2018-10-12T03:49:14.195Z,46.60
2018-10-12T03:51:41.013Z,46.70
2018-10-12T03:54:07.838Z,46.70
2018-10-12T03:56:34.674Z,46.60
2018-10-12T03:59:01.563Z,47.30
2018-10-12T04:01:28.385Z,46.60
2018-10-12T04:03:55.427Z,46.60
2018-10-12T04:06:22.601Z,46.60
2018-10-12T04:08:49.552Z,46.60
2018-10-12T04:11:16.390Z,46.60
2018-10-12T04:13:43.233Z,46.60
2018-10-12T04:16:10.062Z,46.60
2018-10-12T04:18:36.895Z,46.50
2018-10-12T04:21:03.722Z,46.60
2018-10-12T04:23:30.556Z,46.60
2018-10-12T04:25:57.364Z,46.60
2018-10-12T04:28:24.208Z,46.60
2018-10-12T04:30:51.055Z,46.60
2018-10-12T04:33:17.878Z,46.60
2018-10-12T04:35:44.699Z,46.60
2018-10-12T04:38:11.538Z,46.70
2018-10-12T04:40:38.499Z,46.60
2018-10-12T04:43:05.343Z,46.60
2018-10-12T04:45:32.173Z,46.60
2018-10-12T04:47:59.001Z,46.60
2018-10-12T04:50:25.871Z,46.50
2018-10-12T04:52:52.714Z,46.50
2018-10-12T04:55:19.545Z,46.40
2018-10-12T04:57:46.377Z,46.50
2018-10-12T05:00:13.246Z,46.50
2018-10-12T05:02:40.085Z,46.50
2018-10-12T05:05:06.920Z,46.50
2018-10-12T05:07:33.798Z,46.50
2018-10-12T05:10:00.630Z,46.50
2018-10-12T05:12:27.437Z,47.20
2018-10-12T05:14:54.258Z,46.60
2018-10-12T05:17:21.087Z,46.60
2018-10-12T05:19:48.023Z,46.60
2018-10-12T05:22:14.966Z,46.60
2018-10-12T05:24:41.670Z,46.60
2018-10-12T05:27:08.509Z,46.70
2018-10-12T05:29:35.411Z,46.70
2018-10-12T05:32:02.222Z,46.70
2018-10-12T05:34:29.065Z,46.60
2018-10-12T05:36:55.896Z,46.60
2018-10-12T05:39:22.739Z,46.70
2018-10-12T05:41:49.553Z,46.60
2018-10-12T05:44:16.387Z,46.60
2018-10-12T05:46:43.224Z,46.60
2018-10-12T05:49:10.121Z,46.50
2018-10-12T05:51:36.960Z,46.60
2018-10-12T05:54:03.807Z,46.60
2018-10-12T05:56:30.629Z,46.60
2018-10-12T05:58:57.477Z,46.50
2018-10-12T06:01:24.376Z,46.50
2018-10-12T06:03:51.177Z,46.50
2018-10-12T06:06:18.021Z,46.50
2018-10-12T06:08:44.847Z,46.50
2018-10-12T06:11:11.784Z,46.50
2018-10-12T06:13:38.605Z,46.40
2018-10-12T06:16:05.454Z,46.50
2018-10-12T06:18:32.304Z,46.50
2018-10-12T06:20:59.125Z,46.40
2018-10-12T06:23:25.983Z,46.40
2018-10-12T06:25:52.856Z,46.40
2018-10-12T06:28:19.733Z,46.40
2018-10-12T06:30:46.676Z,46.40
2018-10-12T06:33:13.554Z,46.40
2018-10-12T06:35:40.361Z,46.40
2018-10-12T06:38:07.223Z,46.40
2018-10-12T06:40:34.224Z,46.40
2018-10-12T06:43:01.087Z,46.40
2018-10-12T06:45:27.916Z,46.40
2018-10-12T06:47:54.773Z,46.30
2018-10-12T06:50:21.841Z,46.50
2018-10-12T06:52:48.662Z,46.20
2018-10-12T06:55:15.488Z,46.10
2018-10-12T06:57:42.332Z,46.10
2018-10-12T07:00:09.688Z,46.10
2018-10-12T07:02:36.498Z,45.90
2018-10-12T07:05:03.315Z,45.90
2018-10-12T07:07:30.172Z,45.80
2018-10-12T07:09:57.148Z,45.70
2018-10-12T07:12:23.997Z,45.80
2018-10-12T07:14:50.821Z,45.80
2018-10-12T07:17:18.146Z,45.80
2018-10-12T07:19:45.136Z,45.80
2018-10-12T07:22:11.962Z,45.70
2018-10-12T07:24:38.818Z,45.70
2018-10-12T07:27:05.657Z,45.70
2018-10-12T07:29:32.511Z,45.70
2018-10-12T07:31:59.342Z,45.80
2018-10-12T07:34:26.164Z,45.70
2018-10-12T07:36:52.995Z,45.70
2018-10-12T07:39:19.897Z,45.70
2018-10-12T07:41:46.730Z,45.70
2018-10-12T07:44:13.559Z,45.70
2018-10-12T07:46:40.379Z,45.80
2018-10-12T07:49:07.243Z,45.90
2018-10-12T07:51:34.069Z,46.00
2018-10-12T07:54:00.921Z,45.90
2018-10-12T07:56:27.742Z,46.10
2018-10-12T07:58:54.658Z,46.20
2018-10-12T08:01:21.482Z,46.20
2018-10-12T08:03:48.316Z,46.90
2018-10-12T08:06:15.158Z,46.30
2018-10-12T08:08:41.960Z,46.40
2018-10-12T08:11:08.798Z,46.30
2018-10-12T08:13:35.720Z,46.30
2018-10-12T08:16:02.487Z,46.30
2018-10-12T08:18:29.324Z,46.50
2018-10-12T08:20:56.166Z,46.40
2018-10-12T08:23:23.021Z,46.40
2018-10-12T08:25:49.876Z,46.50
2018-10-12T08:28:16.702Z,46.50
2018-10-12T08:30:43.699Z,46.50
2018-10-12T08:33:10.625Z,46.50
2018-10-12T08:35:37.481Z,46.60
2018-10-12T08:38:04.317Z,46.60
2018-10-12T08:40:31.191Z,46.60
2018-10-12T08:42:58.023Z,46.60
2018-10-12T08:45:24.848Z,46.60
2018-10-12T08:47:51.679Z,46.60
2018-10-12T08:50:18.545Z,46.60
2018-10-12T08:52:45.410Z,46.60
2018-10-12T08:55:12.234Z,46.70
2018-10-12T08:57:39.078Z,46.60
2018-10-12T09:00:06.114Z,46.50
2018-10-12T09:02:32.952Z,46.60
2018-10-12T09:04:59.780Z,46.60
2018-10-12T09:07:26.627Z,46.30
2018-10-12T09:09:53.507Z,46.40
2018-10-12T09:12:20.314Z,46.30
2018-10-12T09:14:47.167Z,46.30
2018-10-12T09:17:14.631Z,46.30
2018-10-12T09:19:41.693Z,46.30
2018-10-12T09:22:08.533Z,46.40
2018-10-12T09:24:35.376Z,46.50
2018-10-12T09:27:02.219Z,46.50
2018-10-12T09:29:29.250Z,46.40
2018-10-12T09:31:56.074Z,46.40
2018-10-12T09:34:22.908Z,46.30
2018-10-12T09:36:49.769Z,46.30
2018-10-12T09:39:16.612Z,46.20
2018-10-12T09:41:43.485Z,46.20
2018-10-12T09:44:10.314Z,46.30
2018-10-12T09:46:37.164Z,46.10
2018-10-12T09:49:04.197Z,46.20
2018-10-12T09:51:31.035Z,46.20
2018-10-12T09:53:57.870Z,46.20
2018-10-12T09:56:24.711Z,46.10
2018-10-12T09:58:51.557Z,46.00
2018-10-12T10:01:18.408Z,46.10
2018-10-12T10:03:45.241Z,46.00
2018-10-12T10:06:12.094Z,46.00
2018-10-12T10:08:38.955Z,46.00
2018-10-12T10:11:05.764Z,46.00
2018-10-12T10:13:32.594Z,46.00
2018-10-12T10:15:59.434Z,46.50
2018-10-12T10:18:26.273Z,46.90
2018-10-12T10:20:53.098Z,46.90
2018-10-12T10:23:19.910Z,46.70
2018-10-12T10:25:46.749Z,46.80
2018-10-12T10:28:13.589Z,46.90
2018-10-12T10:30:40.514Z,46.70
2018-10-12T10:33:07.345Z,46.70
2018-10-12T10:35:34.183Z,46.60
2018-10-12T10:38:01.016Z,46.80
2018-10-12T10:40:27.881Z,46.80
2018-10-12T10:42:54.739Z,46.80
2018-10-12T10:45:21.561Z,46.70
2018-10-12T10:47:48.390Z,46.70
2018-10-12T10:50:15.312Z,45.70
2018-10-12T10:52:42.140Z,45.70
2018-10-12T10:55:08.982Z,45.50
2018-10-12T10:57:35.823Z,45.30
2018-10-12T11:00:02.868Z,45.20
2018-10-12T11:02:29.674Z,43.50
2018-10-12T11:04:56.520Z,43.60
2018-10-12T11:07:23.371Z,42.30
2018-10-12T11:09:50.217Z,42.50
2018-10-12T11:12:17.086Z,42.20
2018-10-12T11:14:43.939Z,42.10
2018-10-12T11:17:10.776Z,42.40
2018-10-12T11:19:37.964Z,43.00
2018-10-12T11:22:04.632Z,42.50
2018-10-12T11:24:31.532Z,42.80
2018-10-12T11:26:58.298Z,42.10
2018-10-12T11:29:25.154Z,42.50
2018-10-12T11:31:51.997Z,41.10
2018-10-12T11:34:18.837Z,42.30
2018-10-12T11:36:45.674Z,43.10
2018-10-12T11:39:12.566Z,43.70
2018-10-12T11:41:39.377Z,43.00
2018-10-12T11:44:06.210Z,43.40
2018-10-12T11:46:33.031Z,42.90
2018-10-12T11:48:59.899Z,43.80
2018-10-12T11:51:26.801Z,43.90
2018-10-12T11:53:53.764Z,43.80
2018-10-12T11:56:20.571Z,43.40
2018-10-12T11:58:47.485Z,44.00
2018-10-12T12:01:14.319Z,43.60
2018-10-12T12:03:41.152Z,44.00
2018-10-12T12:06:08.026Z,43.90
2018-10-12T12:08:34.873Z,44.30
2018-10-12T12:11:01.724Z,44.50
2018-10-12T12:13:28.808Z,44.20
2018-10-12T12:15:55.588Z,44.10
2018-10-12T12:18:22.414Z,43.10
2018-10-12T12:20:49.270Z,41.70
2018-10-12T12:23:16.098Z,41.20
2018-10-12T12:25:44.322Z,41.90
2018-10-12T12:28:11.213Z,43.20
2018-10-12T12:30:38.096Z,43.40
2018-10-12T12:33:04.962Z,43.20
2018-10-12T12:35:32.060Z,43.00
2018-10-12T12:37:58.632Z,41.90
2018-10-12T12:40:25.676Z,43.00
2018-10-12T12:42:52.505Z,41.90
2018-10-12T12:45:19.343Z,41.70
2018-10-12T12:47:46.357Z,42.20
2018-10-12T12:50:13.238Z,42.70
2018-10-12T12:52:40.070Z,43.20
2018-10-12T12:55:06.889Z,43.00
2018-10-12T12:57:37.599Z,43.70
2018-10-12T13:00:05.519Z,44.20
2018-10-12T13:02:32.277Z,44.50
2018-10-12T13:04:59.099Z,44.80
2018-10-12T13:07:25.933Z,45.00
2018-10-12T13:09:52.875Z,45.10
2018-10-12T13:12:19.707Z,45.20
2018-10-12T13:14:46.526Z,45.30
2018-10-12T13:17:13.358Z,45.40
2018-10-12T13:19:40.257Z,45.50
2018-10-12T13:22:07.090Z,45.50
2018-10-12T13:24:33.936Z,45.70
2018-10-12T13:27:00.766Z,45.70
2018-10-12T13:29:27.626Z,45.80
2018-10-12T13:31:54.486Z,45.80
2018-10-12T13:34:21.307Z,45.90
2018-10-12T13:36:48.156Z,46.00
2018-10-12T13:39:15.013Z,46.00
2018-10-12T13:41:41.847Z,46.00
2018-10-12T13:44:08.695Z,46.10
2018-10-12T13:46:35.581Z,46.80
2018-10-12T13:49:02.606Z,46.10
2018-10-12T13:51:29.444Z,46.20
2018-10-12T13:53:56.280Z,46.30
2018-10-12T13:56:23.147Z,46.20
2018-10-12T13:58:50.158Z,46.30
2018-10-12T14:01:16.990Z,46.30
2018-10-12T14:03:43.812Z,46.40
2018-10-12T14:06:10.648Z,46.40
2018-10-12T14:08:37.537Z,46.40
2018-10-12T14:11:04.314Z,46.40
2018-10-12T14:13:31.184Z,46.50
2018-10-12T14:15:57.994Z,46.50
2018-10-12T14:18:24.919Z,46.50
2018-10-12T14:20:51.677Z,46.50
2018-10-12T14:23:18.506Z,46.60
2018-10-12T14:25:45.331Z,46.60
2018-10-12T14:28:12.175Z,46.70
2018-10-12T14:30:39.709Z,46.70
2018-10-12T14:33:06.561Z,46.70
2018-10-12T14:35:34.007Z,46.70
2018-10-12T14:38:00.900Z,46.70
2018-10-12T14:40:29.380Z,46.80
2018-10-12T14:42:56.178Z,46.70
2018-10-12T14:45:23.658Z,46.70
2018-10-12T14:47:50.473Z,46.70
2018-10-12T14:50:18.148Z,46.70
2018-10-12T14:52:44.961Z,46.90
2018-10-12T14:55:12.356Z,46.90
2018-10-12T14:57:39.153Z,46.80
2018-10-12T15:00:05.987Z,46.80
2018-10-12T15:02:32.829Z,46.80
2018-10-12T15:04:59.665Z,46.80
2018-10-12T15:07:26.488Z,46.90
2018-10-12T15:09:53.518Z,46.90
2018-10-12T15:12:20.341Z,46.90
2018-10-12T15:14:47.177Z,46.90
2018-10-12T15:17:14.374Z,46.90
2018-10-12T15:19:41.384Z,46.90
2018-10-12T15:22:08.211Z,46.90
2018-10-12T15:24:35.041Z,46.90
2018-10-12T15:27:01.877Z,47.00
2018-10-12T15:29:28.866Z,46.90
2018-10-12T15:31:55.745Z,46.90
2018-10-12T15:34:22.549Z,47.00
2018-10-12T15:36:49.384Z,47.00
2018-10-12T15:39:16.247Z,47.00
2018-10-12T15:41:43.087Z,47.00
2018-10-12T15:44:09.915Z,47.00
2018-10-12T15:46:36.745Z,47.00
2018-10-12T15:49:03.628Z,47.70
2018-10-12T15:51:30.516Z,47.00
2018-10-12T15:53:57.309Z,47.00
2018-10-12T15:56:24.140Z,47.10
2018-10-12T15:58:50.993Z,47.00
2018-10-12T16:01:17.857Z,47.10
2018-10-12T16:03:44.692Z,47.10
2018-10-12T16:06:11.542Z,47.10
2018-10-12T16:08:38.349Z,47.10
2018-10-12T16:11:06.131Z,47.20
2018-10-12T16:13:32.935Z,47.20
2018-10-12T16:16:00.843Z,47.10
2018-10-12T16:18:27.786Z,47.00
2018-10-12T16:20:55.408Z,47.10
2018-10-12T16:23:22.219Z,47.20
2018-10-12T16:25:49.989Z,47.20
2018-10-12T16:28:16.789Z,47.20
2018-10-12T16:30:44.486Z,47.20
2018-10-12T16:33:11.331Z,47.10
2018-10-12T16:35:38.842Z,47.20
2018-10-12T16:38:05.682Z,47.00
2018-10-12T16:40:32.641Z,47.20
2018-10-12T16:42:59.470Z,47.80
2018-10-12T16:45:27.061Z,47.30
2018-10-12T16:47:54.042Z,47.40
2018-10-12T16:50:21.810Z,47.20
2018-10-12T16:52:48.619Z,47.10
2018-10-12T16:55:15.435Z,47.20
2018-10-12T16:57:42.281Z,47.20
2018-10-12T17:00:11.451Z,47.10
2018-10-12T17:02:38.277Z,47.20
2018-10-12T17:05:05.659Z,47.10
2018-10-12T17:07:32.721Z,47.30
2018-10-12T17:09:59.674Z,47.20
2018-10-12T17:12:26.942Z,47.30
2018-10-12T17:14:53.799Z,47.30
2018-10-12T17:17:21.910Z,47.30
2018-10-12T17:19:48.920Z,47.20
2018-10-12T17:22:15.836Z,47.20
2018-10-12T17:24:42.657Z,47.40
2018-10-12T17:27:09.520Z,47.30
2018-10-12T17:29:36.525Z,47.50
2018-10-12T17:32:03.363Z,47.60
2018-10-12T17:34:30.258Z,47.40
2018-10-12T17:36:57.084Z,47.30
2018-10-12T17:39:24.115Z,47.30
2018-10-12T17:41:50.945Z,47.30
2018-10-12T17:44:17.820Z,47.30
2018-10-12T17:46:44.724Z,47.30
2018-10-12T17:49:11.689Z,47.20
2018-10-12T17:51:38.865Z,47.30
2018-10-12T17:54:05.715Z,47.30
2018-10-12T17:56:33.651Z,47.40
2018-10-12T17:59:00.670Z,47.40
2018-10-12T18:01:27.481Z,47.30
2018-10-12T18:03:54.487Z,47.30
2018-10-12T18:06:21.322Z,47.20
2018-10-12T18:08:48.277Z,47.30
2018-10-12T18:11:15.138Z,47.30
2018-10-12T18:13:42.013Z,47.20
2018-10-12T18:16:09.999Z,47.20
2018-10-12T18:18:36.901Z,47.30
2018-10-12T18:21:04.657Z,47.20
2018-10-12T18:23:31.529Z,47.20
2018-10-12T18:25:59.475Z,47.20
2018-10-12T18:28:26.304Z,47.10
2018-10-12T18:30:54.723Z,47.10
2018-10-12T18:33:21.740Z,47.10
2018-10-12T18:35:49.922Z,47.10
2018-10-12T18:38:16.839Z,47.10
2018-10-12T18:40:44.318Z,47.10
2018-10-12T18:43:11.245Z,47.10
2018-10-12T18:45:39.205Z,47.10
2018-10-12T18:48:06.221Z,47.10
2018-10-12T18:50:34.056Z,47.00
2018-10-12T18:53:00.889Z,47.10
2018-10-12T18:55:28.971Z,47.10
2018-10-12T18:57:55.783Z,47.00
2018-10-12T19:00:22.801Z,47.10
2018-10-12T19:02:49.658Z,47.10
2018-10-12T19:05:17.068Z,47.10
2018-10-12T19:07:43.889Z,47.10
2018-10-12T19:10:14.481Z,47.10
2018-10-12T19:12:41.333Z,47.00
2018-10-12T19:15:12.792Z,47.00
2018-10-12T19:17:39.664Z,47.00
2018-10-12T19:20:08.945Z,46.90
2018-10-12T19:22:35.824Z,46.90
2018-10-12T19:25:02.675Z,47.00
2018-10-12T19:27:29.513Z,47.00
2018-10-12T19:29:56.371Z,47.00
2018-10-12T19:32:23.516Z,47.00
2018-10-12T19:34:50.419Z,47.00
2018-10-12T19:37:17.287Z,47.00
2018-10-12T19:39:44.137Z,47.00
2018-10-12T19:42:11.056Z,47.00
2018-10-12T19:44:37.906Z,47.00
2018-10-12T19:47:09.159Z,47.00
2018-10-12T19:49:36.029Z,47.00
2018-10-12T19:52:06.659Z,47.00
2018-10-12T19:54:33.491Z,47.60
2018-10-12T19:57:00.892Z,47.00
2018-10-12T19:59:27.900Z,47.10
2018-10-12T20:01:54.720Z,46.90
2018-10-12T20:04:21.555Z,46.90
2018-10-12T20:06:49.255Z,47.10
2018-10-12T20:09:16.287Z,47.70
2018-10-12T20:11:43.210Z,47.00
2018-10-12T20:14:10.081Z,47.10
2018-10-12T20:16:36.899Z,47.00
2018-10-12T20:19:03.842Z,47.00
2018-10-12T20:21:30.722Z,47.00
2018-10-12T20:23:57.634Z,47.00
2018-10-12T20:26:24.405Z,47.00
2018-10-12T20:28:51.241Z,47.10
2018-10-12T20:31:18.066Z,47.10
2018-10-12T20:33:44.896Z,47.10
2018-10-12T20:36:11.728Z,47.00
2018-10-12T20:38:38.589Z,47.00
2018-10-12T20:41:05.442Z,47.10
2018-10-12T20:43:32.281Z,47.00
2018-10-12T20:45:59.125Z,47.30
2018-10-12T20:48:26.071Z,47.40
2018-10-12T20:50:53.046Z,47.30
2018-10-12T20:53:19.843Z,47.30
2018-10-12T20:55:46.684Z,47.20
2018-10-12T20:58:13.519Z,47.30
2018-10-12T21:00:40.606Z,47.40
2018-10-12T21:03:07.443Z,47.40
2018-10-12T21:05:34.271Z,47.40
2018-10-12T21:08:01.100Z,47.40
2018-10-12T21:10:27.957Z,47.40
2018-10-12T21:12:54.782Z,47.40
2018-10-12T21:15:21.661Z,47.50
2018-10-12T21:17:48.506Z,47.40
2018-10-12T21:20:15.781Z,47.40
2018-10-12T21:22:42.973Z,47.50
2018-10-12T21:25:09.846Z,47.40
2018-10-12T21:27:36.764Z,47.40
2018-10-12T21:30:03.858Z,47.50
2018-10-12T21:32:31.347Z,47.40
2018-10-12T21:34:58.177Z,47.40
2018-10-12T21:37:24.994Z,47.40
2018-10-12T21:39:51.922Z,47.40
2018-10-12T21:42:18.741Z,47.40
2018-10-12T21:44:46.259Z,47.40
2018-10-12T21:47:13.132Z,47.40
2018-10-12T21:49:40.145Z,47.40
2018-10-12T21:52:09.247Z,47.40
2018-10-12T21:54:36.090Z,47.40
2018-10-12T21:57:03.254Z,47.30
2018-10-12T21:59:30.497Z,48.00
2018-10-12T22:01:57.722Z,47.30
2018-10-12T22:04:24.613Z,47.30
2018-10-12T22:06:51.439Z,47.30
2018-10-12T22:09:18.382Z,47.30
2018-10-12T22:11:45.310Z,47.20
2018-10-12T22:14:12.170Z,47.20
2018-10-12T22:16:39.009Z,47.30
2018-10-12T22:19:07.013Z,47.20
2018-10-12T22:21:34.155Z,47.20
2018-10-12T22:24:00.986Z,47.30
2018-10-12T22:26:27.849Z,47.20
2018-10-12T22:28:57.297Z,47.10
2018-10-12T22:31:24.122Z,47.20
2018-10-12T22:33:50.966Z,47.20
2018-10-12T22:36:17.811Z,47.20
2018-10-12T22:38:44.664Z,47.10
2018-10-12T22:41:11.566Z,47.20
2018-10-12T22:43:38.404Z,47.10
2018-10-12T22:46:05.237Z,47.10
2018-10-12T22:48:32.070Z,47.10
2018-10-12T22:50:59.007Z,47.10
2018-10-12T22:53:25.847Z,47.10
2018-10-12T22:55:52.660Z,47.10
2018-10-12T22:58:19.711Z,47.10
2018-10-12T23:00:46.920Z,47.10
2018-10-12T23:03:14.008Z,47.00
2018-10-12T23:05:40.909Z,47.00
2018-10-12T23:08:07.732Z,47.00
2018-10-12T23:10:34.747Z,47.00
2018-10-12T23:13:01.567Z,47.10
2018-10-12T23:15:28.583Z,47.00
2018-10-12T23:17:55.430Z,46.90
2018-10-12T23:20:22.597Z,46.90
2018-10-12T23:22:50.001Z,46.90
2018-10-12T23:25:16.826Z,46.80
2018-10-12T23:27:43.685Z,46.80
2018-10-12T23:30:10.698Z,46.70
2018-10-12T23:32:37.554Z,46.70
2018-10-12T23:35:04.645Z,46.70
2018-10-12T23:37:31.458Z,46.80
2018-10-12T23:39:58.502Z,46.70
2018-10-12T23:42:25.340Z,46.80
2018-10-12T23:44:52.210Z,46.70
2018-10-12T23:47:19.112Z,46.70
2018-10-12T23:49:46.056Z,46.70
2018-10-12T23:52:12.889Z,46.70
2018-10-12T23:54:39.723Z,46.70
2018-10-12T23:57:06.575Z,46.70
2018-10-12T23:59:33.434Z,46.70
